Applegate, Oregon
Current Conditions -  °F | °C
As of 8:53 PM on Saturday 25 Oct 2014 (Local Time) from KMFR Reporting Station
Broken Clouds Broken Clouds  
Wind Chill: 53°   Ceiling: 7000
Heat Index: 53°   Visibility: 10mi
Dew Point: 47°   Wind: 5mph
Humidity: 80%   Direction: 170°S
Pressure: 29.99"   Gusts: NA
Location:  42.1499°N, 123.043°W
Report Text: KMFR 260353Z AUTO 17004KT 10SM FEW040 SCT047 BKN070 12/08 A2999 RMK AO2 SLP153 T01170083
Loading
Personal Weather Stations






























Interactive Weather Map
Tropical Storm Tracking
New forecast layout! Learn more

10-Day Weather Forecast

Advertisements
Track Severe Weather on mobile